Time;durP1;ratioP1;P1;durP2;ratioP2;P2;SDS_P1;SDS_P2;PMS_P1;PMS_P2;Temp;Humidity;BMP_temperature;BMP_pressure;BME280_temperature;BME280_humidity;BME280_pressure;Samples;Min_cycle;Max_cycle;Signal;HPM_P1;HPM_P2
2022/08/05 00:01:42;;;;;;;1.73;1.10;;;18.00;99.90;;;;;;5019987;28;20051;-79
2022/08/05 00:04:07;;;;;;;1.83;1.08;;;17.90;99.90;;;;;;5037589;28;20041;-79
2022/08/05 00:06:34;;;;;;;4.05;1.55;;;17.90;99.90;;;;;;5037543;28;20407;-79
2022/08/05 00:09:00;;;;;;;1.15;1.00;;;17.90;99.90;;;;;;5037129;28;20037;-79
2022/08/05 00:11:27;;;;;;;2.63;1.05;;;17.90;99.90;;;;;;5020914;28;20037;-79
2022/08/05 00:13:53;;;;;;;0.75;0.75;;;17.90;99.90;;;;;;5021180;28;20048;-79
2022/08/05 00:16:18;;;;;;;2.15;1.23;;;17.90;99.90;;;;;;5015331;28;20038;-79
2022/08/05 00:18:46;;;;;;;2.05;1.30;;;17.90;99.90;;;;;;5027228;28;20053;-79
2022/08/05 00:21:13;;;;;;;1.55;1.05;;;17.90;99.90;;;;;;5036932;28;20457;-79
2022/08/05 00:23:39;;;;;;;1.42;1.05;;;17.80;99.90;;;;;;5025138;28;20057;-79
2022/08/05 00:26:06;;;;;;;4.13;1.17;;;17.80;99.90;;;;;;5002864;28;20049;-79
2022/08/05 00:28:33;;;;;;;5.22;1.35;;;17.80;99.90;;;;;;5022902;28;20036;-81
2022/08/05 00:30:59;;;;;;;2.85;1.23;;;17.70;99.90;;;;;;5020959;28;20071;-81
2022/08/05 00:33:24;;;;;;;2.15;1.20;;;17.70;99.90;;;;;;5036847;28;20099;-81
2022/08/05 00:35:50;;;;;;;3.13;1.30;;;17.70;99.90;;;;;;5020303;28;20036;-81
2022/08/05 00:38:16;;;;;;;1.88;1.27;;;17.70;99.90;;;;;;5020292;28;20119;-81
2022/08/05 00:40:46;;;;;;;2.58;1.20;;;17.60;99.90;;;;;;5016741;28;20075;-81
2022/08/05 00:43:12;;;;;;;1.55;1.00;;;17.60;99.90;;;;;;5037137;28;20048;-80
2022/08/05 00:45:38;;;;;;;1.77;1.17;;;17.60;99.90;;;;;;5023826;22;20080;-81
2022/08/05 00:48:04;;;;;;;2.40;1.20;;;17.60;99.90;;;;;;5033049;28;20037;-81
2022/08/05 00:50:30;;;;;;;1.65;1.10;;;17.60;99.90;;;;;;5036442;28;20111;-81
2022/08/05 00:52:55;;;;;;;2.38;1.00;;;17.70;99.90;;;;;;5053598;28;20094;-81
2022/08/05 00:55:22;;;;;;;3.08;1.42;;;17.70;99.90;;;;;;5019338;28;20395;-81
2022/08/05 00:57:47;;;;;;;2.22;1.40;;;17.70;99.90;;;;;;5020267;28;20178;-81
2022/08/05 01:00:13;;;;;;;1.55;1.10;;;17.70;99.90;;;;;;5035868;28;20534;-81
2022/08/05 01:02:39;;;;;;;0.98;0.88;;;17.70;99.90;;;;;;5036811;28;20043;-81
2022/08/05 01:05:05;;;;;;;1.52;0.98;;;17.70;99.90;;;;;;5036542;28;20052;-82
2022/08/05 01:07:31;;;;;;;0.65;0.60;;;17.70;99.90;;;;;;5049364;28;20049;-82
2022/08/05 01:09:57;;;;;;;1.20;0.88;;;17.80;99.90;;;;;;5036552;28;20041;-82
2022/08/05 01:12:24;;;;;;;2.35;0.98;;;17.80;99.90;;;;;;5055672;28;20039;-81
2022/08/05 01:15:10;;;;;;;2.15;1.02;;;17.80;99.90;;;;;;5051898;28;20044;-82
2022/08/05 01:17:37;;;;;;;1.27;1.00;;;17.90;99.90;;;;;;5052993;28;20120;-79
2022/08/05 01:20:25;;;;;;;3.08;1.33;;;17.90;99.90;;;;;;5035703;28;20102;-79
2022/08/05 01:23:22;;;;;;;1.48;1.02;;;17.90;99.90;;;;;;5035242;28;20146;-79
2022/08/05 01:26:12;;;;;;;0.82;0.80;;;18.00;99.90;;;;;;5041371;28;20344;-79
2022/08/05 01:28:50;;;;;;;1.35;0.90;;;18.00;99.90;;;;;;5050345;28;20049;-79
2022/08/05 01:31:26;;;;;;;0.70;0.70;;;18.00;99.90;;;;;;5051794;28;20048;-79
2022/08/05 01:33:58;;;;;;;;;;;18.00;99.90;;;;;;5052583;28;20107;-79
2022/08/05 01:36:31;;;;;;;4.07;1.20;;;18.00;99.90;;;;;;5052748;28;20007;-79
2022/08/05 01:38:58;;;;;;;1.40;1.10;;;18.00;99.90;;;;;;5031279;28;20040;-79
2022/08/05 01:41:28;;;;;;;1.98;1.15;;;18.00;99.90;;;;;;5052789;28;20052;-79
2022/08/05 01:43:55;;;;;;;2.05;0.85;;;17.90;99.90;;;;;;5051467;28;20120;-79
2022/08/05 01:46:22;;;;;;;1.67;1.02;;;17.90;99.90;;;;;;5035762;28;20061;-80
2022/08/05 01:48:49;;;;;;;3.75;1.30;;;17.90;99.90;;;;;;5035991;28;20045;-80
2022/08/05 01:51:17;;;;;;;1.13;0.95;;;17.90;99.90;;;;;;5035623;28;20041;-80
2022/08/05 01:53:45;;;;;;;0.80;0.80;;;17.90;99.90;;;;;;5052505;28;20037;-80
2022/08/05 01:56:14;;;;;;;2.22;1.00;;;17.90;99.90;;;;;;5034724;28;20033;-80
2022/08/05 01:58:43;;;;;;;1.30;0.93;;;17.90;99.90;;;;;;5046796;28;20102;-79
2022/08/05 02:01:11;;;;;;;1.50;0.90;;;17.80;99.90;;;;;;5033823;28;20048;-79
2022/08/05 02:03:43;;;;;;;1.50;0.77;;;17.80;99.90;;;;;;5035854;28;20044;-80
2022/08/05 02:06:10;;;;;;;1.42;1.20;;;17.70;99.90;;;;;;5034031;28;20072;-80
2022/08/05 02:08:36;;;;;;;4.00;1.33;;;17.70;99.90;;;;;;5035929;28;20037;-80
2022/08/05 02:11:06;;;;;;;1.00;0.90;;;17.60;99.90;;;;;;5035828;28;20041;-80
2022/08/05 02:13:50;;;;;;;1.15;0.80;;;17.50;99.90;;;;;;5052336;28;20040;-80
2022/08/05 02:16:25;;;;;;;2.83;1.20;;;17.50;99.90;;;;;;5062484;28;20049;-79
2022/08/05 02:19:10;;;;;;;2.75;1.35;;;17.50;99.90;;;;;;5052359;28;20037;-79
2022/08/05 02:21:42;;;;;;;2.92;1.30;;;17.40;99.90;;;;;;5051767;28;20044;-79
2022/08/05 02:24:13;;;;;;;2.80;1.38;;;17.30;99.90;;;;;;5035621;28;20052;-81
2022/08/05 02:26:45;;;;;;;2.05;1.05;;;17.20;99.90;;;;;;5052079;28;20449;-81
2022/08/05 02:29:12;;;;;;;1.17;1.02;;;17.10;99.90;;;;;;5052373;28;20119;-81
2022/08/05 02:31:40;;;;;;;1.20;1.00;;;17.10;99.90;;;;;;5038278;28;20044;-81
2022/08/05 02:34:10;;;;;;;1.10;1.00;;;17.00;99.90;;;;;;5039662;28;20045;-81
2022/08/05 02:36:41;;;;;;;2.67;1.13;;;17.00;99.90;;;;;;5055672;28;20045;-81
2022/08/05 02:39:08;;;;;;;2.15;1.20;;;16.90;99.90;;;;;;5019791;28;20053;-81
2022/08/05 02:41:36;;;;;;;2.85;1.40;;;16.90;99.90;;;;;;5041612;28;20041;-79
2022/08/05 02:44:07;;;;;;;1.35;1.00;;;16.90;99.90;;;;;;5055829;28;20491;-79
2022/08/05 02:46:34;;;;;;;2.03;1.10;;;17.00;99.90;;;;;;5047271;28;20089;-79
2022/08/05 02:49:01;;;;;;;2.80;1.08;;;17.00;99.90;;;;;;5049921;28;20049;-79
2022/08/05 02:51:27;;;;;;;1.48;1.00;;;17.00;99.90;;;;;;5020960;28;20410;-79
2022/08/05 02:53:54;;;;;;;2.55;1.10;;;17.00;99.90;;;;;;5055202;28;20036;-79
2022/08/05 02:56:20;;;;;;;2.13;1.20;;;17.00;99.90;;;;;;5039360;28;20440;-79
2022/08/05 02:58:48;;;;;;;2.05;1.45;;;17.00;99.90;;;;;;5037689;28;20498;-81
2022/08/05 03:01:19;;;;;;;1.42;1.33;;;17.00;99.90;;;;;;5054650;28;20087;-82
2022/08/05 03:03:55;;;;;;;1.38;1.20;;;16.90;99.90;;;;;;5055613;28;20037;-82
2022/08/05 03:06:21;;;;;;;1.02;0.82;;;16.90;99.90;;;;;;5037712;28;20048;-82
2022/08/05 03:08:50;;;;;;;2.00;1.25;;;16.90;99.90;;;;;;5036789;28;20458;-82
2022/08/05 03:11:23;;;;;;;3.03;1.48;;;16.90;99.90;;;;;;5045578;28;20551;-82
2022/08/05 03:13:50;;;;;;;1.48;1.20;;;16.80;99.90;;;;;;5033546;28;20048;-82
2022/08/05 03:16:16;;;;;;;1.40;1.30;;;16.80;99.90;;;;;;5073561;28;20090;-81
2022/08/05 03:18:42;;;;;;;2.08;1.52;;;16.80;99.90;;;;;;5058259;28;20044;-81
2022/08/05 03:21:08;;;;;;;3.15;1.17;;;16.80;99.90;;;;;;5038756;28;20049;-81
2022/08/05 03:23:35;;;;;;;2.15;1.30;;;16.80;99.90;;;;;;5038549;28;20049;-81
2022/08/05 03:26:04;;;;;;;1.67;1.17;;;16.80;99.90;;;;;;5055278;28;20130;-81
2022/08/05 03:28:31;;;;;;;2.63;1.60;;;16.70;99.90;;;;;;5038588;28;20182;-81
2022/08/05 03:30:58;;;;;;;2.83;1.33;;;16.70;99.90;;;;;;5054615;28;20048;-80
2022/08/05 03:33:26;;;;;;;1.13;1.02;;;16.70;99.90;;;;;;5054813;28;20111;-79
2022/08/05 03:35:52;;;;;;;2.05;1.27;;;16.70;99.90;;;;;;5054673;28;20048;-79
2022/08/05 03:38:18;;;;;;;2.33;1.40;;;16.60;99.90;;;;;;5038663;28;20052;-79
2022/08/05 03:40:45;;;;;;;2.42;1.42;;;16.70;99.90;;;;;;5054508;28;20041;-79
2022/08/05 03:43:11;;;;;;;2.05;1.35;;;16.60;99.90;;;;;;5037876;28;20452;-79
2022/08/05 03:45:37;;;;;;;2.92;1.30;;;16.60;99.90;;;;;;5021338;28;20140;-79
2022/08/05 03:48:03;;;;;;;1.17;1.00;;;16.60;99.90;;;;;;5054673;28;20555;-79
2022/08/05 03:50:56;;;;;;;1.60;1.05;;;16.60;99.90;;;;;;5054228;28;20438;-79
2022/08/05 03:53:36;;;;;;;2.80;1.88;;;16.60;99.90;;;;;;5017842;28;20041;-79
2022/08/05 03:56:11;;;;;;;3.90;2.08;;;16.50;99.90;;;;;;5019904;28;20527;-79
2022/08/05 03:58:41;;;;;;;1.60;1.30;;;16.50;99.90;;;;;;5046769;28;20525;-79
2022/08/05 04:01:08;;;;;;;3.00;1.40;;;16.40;99.90;;;;;;5053514;28;20052;-79
2022/08/05 04:03:37;;;;;;;1.77;1.05;;;16.40;99.90;;;;;;5030481;28;20074;-81
2022/08/05 04:06:07;;;;;;;1.25;1.13;;;16.40;99.90;;;;;;5053834;28;20462;-81
2022/08/05 04:08:34;;;;;;;1.55;1.45;;;16.30;99.90;;;;;;5054377;28;20546;-81
2022/08/05 04:11:01;;;;;;;2.90;1.65;;;16.30;99.90;;;;;;5038059;28;20037;-81
2022/08/05 04:13:29;;;;;;;3.40;1.70;;;16.30;99.90;;;;;;5037742;28;20041;-81
2022/08/05 04:15:56;;;;;;;2.50;1.58;;;16.30;99.90;;;;;;5056059;28;20037;-81
2022/08/05 04:18:26;;;;;;;3.53;1.60;;;16.20;99.90;;;;;;5063418;28;20510;-81
2022/08/05 04:20:53;;;;;;;2.28;1.60;;;16.20;99.90;;;;;;5038625;28;20037;-80
2022/08/05 04:23:22;;;;;;;2.20;1.60;;;16.20;99.90;;;;;;5046568;28;20487;-79
2022/08/05 04:25:48;;;;;;;3.20;1.50;;;16.20;99.90;;;;;;5053500;28;20036;-79
2022/08/05 04:28:13;;;;;;;1.38;1.20;;;16.20;99.90;;;;;;5036673;28;20135;-79
2022/08/05 04:30:39;;;;;;;3.38;1.60;;;16.20;99.90;;;;;;5053666;28;20124;-79
2022/08/05 04:33:05;;;;;;;1.88;1.30;;;16.20;99.90;;;;;;5052418;28;20087;-79
2022/08/05 04:35:30;;;;;;;3.95;1.83;;;16.20;99.90;;;;;;5037001;28;20037;-79
2022/08/05 04:37:56;;;;;;;1.35;1.23;;;16.30;99.90;;;;;;5053963;28;20048;-81
2022/08/05 04:40:22;;;;;;;2.75;1.33;;;16.30;99.90;;;;;;5054607;28;20052;-81
2022/08/05 04:42:48;;;;;;;1.80;1.30;;;16.30;99.90;;;;;;5037276;28;20047;-81
2022/08/05 04:45:13;;;;;;;3.58;1.83;;;16.30;99.90;;;;;;5054814;28;20092;-80
2022/08/05 04:47:39;;;;;;;2.92;1.90;;;16.40;99.90;;;;;;5040260;28;20133;-81
2022/08/05 04:50:05;;;;;;;2.38;1.65;;;16.30;99.90;;;;;;5024211;28;20098;-81
2022/08/05 04:52:31;;;;;;;3.95;1.63;;;16.40;99.90;;;;;;5057210;28;20047;-81
2022/08/05 04:54:56;;;;;;;2.35;1.60;;;16.30;99.90;;;;;;5055466;28;20049;-81
2022/08/05 04:57:22;;;;;;;1.90;1.55;;;16.30;99.90;;;;;;5040258;28;20037;-81
2022/08/05 04:59:48;;;;;;;3.33;1.95;;;16.30;99.90;;;;;;5056519;28;20080;-81
2022/08/05 05:02:14;;;;;;;2.83;1.88;;;16.30;99.90;;;;;;5057087;28;20131;-81
2022/08/05 05:04:39;;;;;;;3.90;1.80;;;16.30;99.90;;;;;;5056747;28;20482;-81
2022/08/05 05:07:05;;;;;;;2.95;1.65;;;16.30;99.90;;;;;;5040079;28;20431;-81
2022/08/05 05:09:30;;;;;;;2.97;1.80;;;16.30;99.90;;;;;;5055923;28;20382;-81
2022/08/05 05:11:56;;;;;;;3.50;1.33;;;16.30;99.90;;;;;;5040308;28;20545;-81
2022/08/05 05:14:22;;;;;;;3.95;1.75;;;16.30;99.90;;;;;;5058871;28;20028;-81
2022/08/05 05:16:48;;;;;;;2.88;1.45;;;16.40;99.90;;;;;;5076137;28;20089;-81
2022/08/05 05:19:14;;;;;;;1.33;1.13;;;16.40;99.90;;;;;;5056642;28;20040;-81
2022/08/05 05:21:39;;;;;;;1.58;1.25;;;16.40;99.90;;;;;;5039398;28;20048;-81
2022/08/05 05:24:05;;;;;;;2.38;1.52;;;16.50;99.90;;;;;;5040231;28;20101;-82
2022/08/05 05:26:31;;;;;;;4.53;1.48;;;16.40;99.90;;;;;;5042805;28;20092;-79
2022/08/05 05:28:57;;;;;;;2.28;1.40;;;16.50;99.90;;;;;;5036002;28;20041;-79
2022/08/05 05:31:22;;;;;;;3.72;1.75;;;16.50;99.90;;;;;;5038887;28;20068;-79
2022/08/05 05:33:48;;;;;;;2.15;1.65;;;16.50;99.90;;;;;;5056243;28;20044;-79
2022/08/05 05:36:14;;;;;;;2.92;1.77;;;16.60;99.90;;;;;;5039280;28;20446;-79
2022/08/05 05:38:39;;;;;;;3.08;1.73;;;16.60;99.90;;;;;;5056117;28;20040;-79
2022/08/05 05:41:05;;;;;;;2.53;1.65;;;16.80;99.90;;;;;;5055404;28;20119;-79
2022/08/05 05:43:31;;;;;;;2.35;1.50;;;17.00;99.90;;;;;;5056422;28;20047;-80
2022/08/05 05:45:56;;;;;;;3.50;1.80;;;17.90;99.90;;;;;;5038934;28;20056;-80
2022/08/05 05:48:23;;;;;;;3.47;1.50;;;18.20;99.90;;;;;;5055231;28;20048;-81
2022/08/05 05:50:50;;;;;;;3.58;1.67;;;19.10;99.90;;;;;;5039122;28;20083;-81
2022/08/05 05:53:16;;;;;;;2.75;1.80;;;20.60;99.90;;;;;;5054875;28;20437;-81
2022/08/05 05:55:42;;;;;;;2.63;1.90;;;21.60;99.90;;;;;;5055584;28;20041;-81
2022/08/05 05:58:08;;;;;;;2.28;1.63;;;22.60;99.90;;;;;;5038485;28;20379;-81
2022/08/05 06:00:33;;;;;;;2.20;1.33;;;23.60;99.90;;;;;;5018961;28;20472;-82
2022/08/05 06:03:01;;;;;;;1.90;1.20;;;24.30;99.90;;;;;;5027333;28;20119;-82
2022/08/05 06:05:26;;;;;;;1.52;1.23;;;25.10;99.90;;;;;;5055700;28;20048;-82
2022/08/05 06:07:52;;;;;;;1.48;1.10;;;25.70;99.90;;;;;;5039152;28;20043;-82
2022/08/05 06:10:18;;;;;;;2.22;1.00;;;26.40;99.90;;;;;;5055001;28;20037;-82
2022/08/05 06:12:43;;;;;;;5.63;1.50;;;27.00;99.90;;;;;;5041972;28;20174;-82
2022/08/05 06:15:10;;;;;;;1.33;1.17;;;27.50;99.30;;;;;;5047986;28;20031;-82
2022/08/05 06:17:36;;;;;;;1.20;1.00;;;27.80;98.50;;;;;;5066341;28;20067;-82
2022/08/05 06:20:03;;;;;;;1.38;0.85;;;28.00;97.50;;;;;;5038539;28;20079;-81
2022/08/05 06:22:32;;;;;;;3.17;1.10;;;28.60;97.30;;;;;;5038558;28;20154;-82
2022/08/05 06:24:58;;;;;;;2.15;0.98;;;29.00;96.00;;;;;;5054942;28;20040;-82
2022/08/05 06:27:24;;;;;;;0.60;0.60;;;29.40;94.40;;;;;;5055260;28;20033;-83
2022/08/05 06:29:49;;;;;;;2.83;0.63;;;29.70;93.90;;;;;;5055309;28;20048;-83
2022/08/05 06:32:16;;;;;;;1.00;0.63;;;29.60;93.20;;;;;;5039265;28;20044;-83
2022/08/05 06:34:41;;;;;;;1.58;0.93;;;29.70;93.70;;;;;;5055491;28;20044;-84
2022/08/05 06:37:07;;;;;;;0.90;0.50;;;30.10;92.60;;;;;;5039169;28;20036;-84
2022/08/05 06:39:33;;;;;;;0.90;0.63;;;30.60;93.30;;;;;;5055389;28;20429;-84
2022/08/05 06:42:01;;;;;;;0.80;0.60;;;30.80;92.00;;;;;;5039875;28;20036;-84
2022/08/05 06:47:00;;;;;;;1.55;0.55;;;31.00;91.20;;;;;;5070862;28;20036;-80
2022/08/05 06:49:26;;;;;;;2.03;0.63;;;31.40;90.10;;;;;;5033456;28;20072;-80
2022/08/05 06:51:52;;;;;;;0.52;0.43;;;31.20;90.90;;;;;;5045637;28;20060;-80
2022/08/05 06:54:17;;;;;;;2.97;0.88;;;31.30;91.00;;;;;;5044006;28;20498;-80
2022/08/05 06:56:43;;;;;;;0.60;0.60;;;31.20;90.00;;;;;;5027482;28;20033;-80
2022/08/05 06:59:13;;;;;;;0.30;0.30;;;30.40;89.40;;;;;;5054563;28;20044;-80
2022/08/05 07:01:39;;;;;;;0.80;0.50;;;30.30;90.50;;;;;;5047031;28;20114;-80
2022/08/05 07:04:05;;;;;;;1.13;0.60;;;30.30;90.30;;;;;;5053600;28;20055;-80
2022/08/05 07:06:31;;;;;;;0.68;0.50;;;29.50;90.00;;;;;;5054728;28;20036;-80
2022/08/05 07:08:56;;;;;;;0.40;0.40;;;29.80;90.30;;;;;;5054709;28;20045;-80
2022/08/05 07:11:22;;;;;;;0.50;0.50;;;30.50;90.10;;;;;;5053421;28;20036;-80
2022/08/05 07:16:48;;;;;;;0.93;0.30;;;30.10;87.70;;;;;;5035602;28;20117;-80
2022/08/05 07:19:19;;;;;;;0.75;0.30;;;28.80;88.80;;;;;;5043116;28;20434;-80
2022/08/05 07:21:46;;;;;;;1.13;0.73;;;27.30;90.30;;;;;;5057707;28;20043;-80
2022/08/05 07:24:12;;;;;;;1.05;0.50;;;28.00;91.40;;;;;;5042802;28;20037;-80
2022/08/05 07:26:38;;;;;;;1.85;0.47;;;29.20;90.90;;;;;;5058246;28;20079;-80
2022/08/05 07:29:04;;;;;;;2.15;0.73;;;30.10;88.80;;;;;;5042005;28;20075;-80
2022/08/05 07:31:30;;;;;;;0.63;0.40;;;31.20;87.30;;;;;;5054178;28;20395;-80
2022/08/05 07:33:56;;;;;;;2.13;0.70;;;31.70;87.30;;;;;;5047432;28;20045;-80
2022/08/05 07:36:22;;;;;;;0.82;0.55;;;32.10;85.60;;;;;;5038101;28;20047;-81
2022/08/05 07:38:48;;;;;;;1.23;0.60;;;31.40;85.20;;;;;;5057599;28;20076;-81
2022/08/05 07:41:16;;;;;;;0.73;0.30;;;29.50;87.40;;;;;;5041458;28;20154;-85
2022/08/05 07:43:42;;;;;;;3.78;0.90;;;27.80;90.20;;;;;;5057682;28;20048;-85
2022/08/05 07:46:08;;;;;;;1.48;0.70;;;26.60;91.80;;;;;;5058116;28;20071;-85
2022/08/05 07:48:33;;;;;;;2.15;0.80;;;25.20;93.50;;;;;;5058097;28;20051;-86
2022/08/05 07:50:59;;;;;;;2.17;0.60;;;25.90;94.20;;;;;;5041671;28;20036;-85
2022/08/05 07:53:25;;;;;;;0.90;0.73;;;27.00;92.30;;;;;;5024710;28;20394;-85
2022/08/05 07:55:51;;;;;;;1.10;0.70;;;28.30;91.30;;;;;;5041353;28;20041;-85
2022/08/05 07:58:17;;;;;;;2.15;0.63;;;29.70;91.20;;;;;;5057445;28;20112;-81
2022/08/05 08:00:43;;;;;;;0.50;0.30;;;29.80;87.80;;;;;;5041164;28;20131;-80
2022/08/05 08:03:10;;;;;;;0.63;0.43;;;28.90;88.30;;;;;;5058021;28;20048;-80
2022/08/05 08:05:42;;;;;;;1.30;0.38;;;29.30;89.90;;;;;;5040400;28;20079;-80
2022/08/05 08:08:12;;;;;;;0.90;0.38;;;29.90;90.30;;;;;;5053973;28;20044;-80
2022/08/05 08:10:39;;;;;;;0.73;0.73;;;30.20;86.00;;;;;;5057651;28;20532;-81
2022/08/05 08:13:05;;;;;;;0.63;0.30;;;29.20;86.10;;;;;;5024941;28;20048;-85
2022/08/05 08:15:31;;;;;;;1.52;0.45;;;28.40;88.40;;;;;;5041303;28;20040;-85
2022/08/05 08:17:56;;;;;;;0.82;0.50;;;28.90;87.80;;;;;;5042003;28;20055;-86
2022/08/05 08:20:24;;;;;;;1.25;0.52;;;29.80;86.80;;;;;;5040615;28;20037;-86
2022/08/05 08:22:54;;;;;;;1.48;0.50;;;30.30;86.20;;;;;;5041066;28;20047;-86
2022/08/05 08:25:20;;;;;;;0.43;0.38;;;30.20;85.20;;;;;;5057712;28;20044;-86
2022/08/05 08:27:46;;;;;;;0.93;0.60;;;29.60;84.50;;;;;;5040551;28;20402;-86
2022/08/05 08:30:12;;;;;;;1.88;0.55;;;30.00;87.50;;;;;;5040946;28;20040;-85
2022/08/05 08:32:38;;;;;;;0.68;0.28;;;30.40;86.10;;;;;;5057740;28;20040;-86
2022/08/05 08:35:06;;;;;;;1.08;0.50;;;29.70;84.50;;;;;;5041141;28;20094;-86
2022/08/05 08:37:31;;;;;;;0.98;0.52;;;29.00;87.70;;;;;;5041029;28;20056;-86
2022/08/05 08:39:57;;;;;;;1.90;0.95;;;29.00;87.80;;;;;;5068578;28;20386;-86
2022/08/05 08:42:24;;;;;;;0.60;0.45;;;30.00;85.70;;;;;;5060926;28;20082;-85
2022/08/05 08:44:53;;;;;;;0.50;0.43;;;30.60;83.50;;;;;;5077066;28;20371;-85
2022/08/05 08:47:26;;;;;;;0.82;0.30;;;31.20;80.30;;;;;;5076945;28;20040;-86
2022/08/05 08:49:55;;;;;;;0.65;0.30;;;31.10;80.40;;;;;;5043696;28;20136;-86
2022/08/05 08:52:30;;;;;;;0.93;0.65;;;30.80;82.10;;;;;;5064245;28;20036;-85
2022/08/05 08:54:56;;;;;;;0.30;0.30;;;30.70;81.90;;;;;;5077517;28;20032;-85
2022/08/05 08:57:22;;;;;;;1.10;0.40;;;31.10;82.90;;;;;;5060113;28;20036;-86
2022/08/05 08:59:49;;;;;;;2.30;0.40;;;31.30;80.60;;;;;;5041753;28;20040;-86
2022/08/05 09:02:18;;;;;;;1.15;0.52;;;30.80;81.20;;;;;;5040195;28;20041;-86
2022/08/05 09:04:45;;;;;;;0.55;0.30;;;30.60;79.90;;;;;;5056753;28;20044;-86
2022/08/05 09:07:12;;;;;;;0.68;0.40;;;30.10;81.80;;;;;;5041042;28;20378;-86
2022/08/05 09:09:38;;;;;;;0.40;0.22;;;29.80;81.70;;;;;;5056497;28;20036;-86
2022/08/05 09:12:07;;;;;;;0.80;0.38;;;29.40;80.80;;;;;;5040086;28;20075;-86
2022/08/05 09:14:34;;;;;;;0.75;0.17;;;29.90;82.80;;;;;;5053476;28;20083;-86
2022/08/05 09:17:00;;;;;;;1.10;0.50;;;30.50;79.60;;;;;;5056528;28;20098;-86
2022/08/05 09:19:27;;;;;;;1.48;0.35;;;31.10;79.70;;;;;;5039609;28;20042;-86
2022/08/05 09:21:53;;;;;;;1.10;0.20;;;31.30;76.40;;;;;;5056239;28;20098;-81
2022/08/05 09:24:19;;;;;;;1.05;0.45;;;30.90;77.30;;;;;;5055667;28;20041;-81
2022/08/05 09:26:52;;;;;;;1.75;0.50;;;31.00;78.20;;;;;;5039835;28;20044;-81
2022/08/05 09:29:18;;;;;;;0.15;0.15;;;31.60;74.80;;;;;;5056605;28;20352;-81
2022/08/05 09:32:00;;;;;;;0.38;0.20;;;31.90;71.30;;;;;;5055443;28;20117;-81
2022/08/05 09:34:54;;;;;;;0.38;0.38;;;32.00;74.30;;;;;;5038701;28;20541;-81
2022/08/05 09:37:22;;;;;;;0.32;0.25;;;32.30;69.40;;;;;;5036160;28;20394;-86
2022/08/05 09:39:48;;;;;;;0.10;0.10;;;31.90;70.30;;;;;;5036414;28;20082;-86
2022/08/05 09:42:18;;;;;;;1.60;0.30;;;31.50;71.40;;;;;;5019417;28;20487;-86
2022/08/05 09:44:46;;;;;;;0.00;0.00;;;32.30;72.70;;;;;;5041296;28;20038;-85
2022/08/05 09:47:15;;;;;;;0.20;0.20;;;33.30;67.40;;;;;;5056127;28;20123;-86
2022/08/05 09:49:44;;;;;;;0.25;0.22;;;33.60;67.70;;;;;;5039484;28;20348;-86
2022/08/05 09:52:36;;;;;;;0.10;0.10;;;32.90;64.70;;;;;;5055831;28;20109;-86
2022/08/05 09:55:11;;;;;;;1.65;0.43;;;32.50;68.20;;;;;;5049439;28;20044;-86
2022/08/05 09:57:41;;;;;;;0.47;0.22;;;31.90;64.80;;;;;;5039119;28;20041;-86
2022/08/05 10:00:12;;;;;;;0.85;0.38;;;32.30;65.20;;;;;;5056535;28;20448;-86
2022/08/05 10:02:55;;;;;;;0.73;0.32;;;32.90;64.40;;;;;;5055531;28;20036;-86
2022/08/05 10:05:24;;;;;;;0.20;0.20;;;32.90;60.40;;;;;;5038679;28;20658;-86
2022/08/05 10:07:54;;;;;;;0.47;0.32;;;33.20;61.20;;;;;;5055741;28;20055;-86
2022/08/05 10:10:22;;;;;;;0.52;0.25;;;32.70;62.10;;;;;;5056453;28;20037;-86
2022/08/05 10:12:57;;;;;;;1.73;0.28;;;33.10;62.80;;;;;;5058840;28;20044;-86
2022/08/05 10:15:28;;;;;;;1.10;0.25;;;33.20;62.60;;;;;;5076214;28;20048;-86
2022/08/05 10:18:15;;;;;;;0.30;0.30;;;33.50;62.40;;;;;;5076128;28;20036;-86
2022/08/05 10:20:54;;;;;;;1.38;0.40;;;33.40;60.60;;;;;;5038246;28;20418;-86
2022/08/05 10:23:26;;;;;;;0.65;0.30;;;32.70;61.40;;;;;;5041962;28;20036;-85
2022/08/05 10:25:54;;;;;;;1.08;0.43;;;32.40;61.10;;;;;;5038973;28;20044;-86
2022/08/05 10:28:19;;;;;;;0.73;0.30;;;32.70;59.70;;;;;;5047097;28;20120;-85
2022/08/05 10:30:45;;;;;;;0.20;0.20;;;32.50;60.50;;;;;;5015747;28;20120;-86
2022/08/05 10:33:11;;;;;;;0.20;0.20;;;32.70;63.10;;;;;;5055281;28;20119;-86
2022/08/05 10:35:37;;;;;;;0.60;0.43;;;32.70;63.60;;;;;;5055425;28;20093;-86
2022/08/05 10:38:04;;;;;;;0.17;0.17;;;32.70;62.20;;;;;;5038693;28;20122;-86
2022/08/05 10:40:35;;;;;;;0.10;0.10;;;32.40;63.30;;;;;;5040463;28;20402;-86
2022/08/05 10:43:15;;;;;;;0.57;0.50;;;31.80;62.10;;;;;;5061244;28;20045;-85
2022/08/05 10:45:41;;;;;;;0.43;0.20;;;30.80;61.90;;;;;;5055192;28;20056;-81
2022/08/05 10:48:31;;;;;;;2.28;0.38;;;30.80;64.20;;;;;;5055125;28;20418;-81
2022/08/05 10:51:02;;;;;;;0.40;0.30;;;31.20;65.50;;;;;;5054781;28;20621;-81
2022/08/05 10:53:41;;;;;;;0.43;0.30;;;31.20;65.20;;;;;;5056475;28;20543;-81
2022/08/05 10:56:16;;;;;;;1.33;0.20;;;30.50;66.30;;;;;;5058255;28;20119;-81
2022/08/05 10:58:52;;;;;;;0.45;0.20;;;29.90;67.40;;;;;;5057092;28;20478;-81
2022/08/05 11:01:34;;;;;;;1.27;0.20;;;29.50;67.00;;;;;;5058436;28;20036;-81
2022/08/05 11:04:11;;;;;;;4.22;0.40;;;29.20;66.80;;;;;;5059260;28;20127;-81
2022/08/05 11:07:05;;;;;;;0.20;0.20;;;28.50;67.40;;;;;;5041674;28;20032;-81
2022/08/05 11:09:46;;;;;;;0.13;0.13;;;27.80;69.70;;;;;;5042336;28;20462;-81
2022/08/05 11:12:37;;;;;;;0.10;0.10;;;27.20;69.20;;;;;;5038992;28;20476;-81
2022/08/05 11:15:19;;;;;;;1.02;0.73;;;27.00;69.30;;;;;;5046713;28;20502;-80
2022/08/05 11:17:46;;;;;;;0.43;0.30;;;27.60;69.10;;;;;;5056575;28;20044;-81
2022/08/05 11:20:33;;;;;;;0.98;0.20;;;28.70;69.80;;;;;;5041278;28;20125;-81
2022/08/05 11:22:59;;;;;;;0.80;0.35;;;29.40;68.30;;;;;;5041892;28;20040;-81
2022/08/05 11:25:42;;;;;;;0.43;0.22;;;29.70;65.60;;;;;;5042036;28;20174;-81
2022/08/05 11:28:11;;;;;;;0.28;0.28;;;29.50;66.20;;;;;;5056520;28;20425;-81
2022/08/05 11:30:55;;;;;;;1.35;0.20;;;28.50;67.10;;;;;;5041384;28;20123;-81
2022/08/05 11:33:46;;;;;;;1.35;0.80;;;27.50;68.90;;;;;;5058555;28;20041;-86
2022/08/05 11:36:15;;;;;;;0.75;0.40;;;26.80;70.70;;;;;;5041322;28;20048;-86
2022/08/05 11:38:41;;;;;;;1.45;0.30;;;26.30;71.20;;;;;;5042420;28;20052;-86
2022/08/05 11:41:24;;;;;;;1.25;0.45;;;25.80;72.70;;;;;;5038757;28;20041;-86
2022/08/05 11:43:57;;;;;;;0.82;0.45;;;25.40;73.00;;;;;;5038418;28;20407;-86
2022/08/05 11:46:38;;;;;;;2.10;0.43;;;25.00;75.00;;;;;;5038266;28;20064;-86
2022/08/05 11:49:06;;;;;;;0.70;0.57;;;25.00;74.90;;;;;;5059313;28;20052;-86
2022/08/05 11:51:32;;;;;;;0.70;0.40;;;25.30;74.60;;;;;;5048648;28;20068;-86
2022/08/05 11:53:59;;;;;;;0.15;0.15;;;25.60;75.60;;;;;;5041087;28;20529;-86
2022/08/05 11:56:25;;;;;;;0.43;0.20;;;25.50;73.30;;;;;;5057810;28;20041;-86
2022/08/05 11:58:51;;;;;;;1.70;0.50;;;25.30;73.50;;;;;;5051015;28;20090;-86
2022/08/05 12:01:19;;;;;;;1.13;0.50;;;25.60;73.70;;;;;;5032269;28;20041;-86
2022/08/05 12:03:48;;;;;;;0.20;0.17;;;25.70;72.90;;;;;;5037113;28;20048;-85
2022/08/05 12:06:15;;;;;;;0.20;0.20;;;25.50;73.70;;;;;;5037870;28;20052;-87
2022/08/05 12:08:43;;;;;;;0.75;0.30;;;25.00;74.20;;;;;;5039156;28;20075;-86
2022/08/05 12:11:15;;;;;;;0.55;0.22;;;24.80;75.20;;;;;;5037927;28;20044;-86
2022/08/05 12:13:55;;;;;;;1.33;0.47;;;24.60;74.80;;;;;;5047195;28;20068;-86
2022/08/05 12:16:23;;;;;;;0.30;0.30;;;24.60;75.90;;;;;;5044197;28;20070;-86
2022/08/05 12:18:49;;;;;;;0.32;0.20;;;24.60;75.00;;;;;;5036052;28;20102;-86
2022/08/05 12:21:17;;;;;;;0.80;0.20;;;25.20;76.10;;;;;;5077285;28;20051;-86
2022/08/05 12:24:04;;;;;;;0.47;0.20;;;25.90;77.20;;;;;;5077733;28;20067;-81
2022/08/05 12:26:51;;;;;;;0.45;0.22;;;26.20;74.60;;;;;;5059364;28;20041;-80
2022/08/05 12:29:23;;;;;;;1.45;0.32;;;25.70;74.80;;;;;;5051221;28;20093;-80
2022/08/05 12:31:56;;;;;;;0.30;0.20;;;25.50;73.50;;;;;;5055740;28;20090;-80
2022/08/05 12:34:27;;;;;;;0.65;0.32;;;25.40;75.00;;;;;;5057273;28;20624;-81
2022/08/05 12:36:54;;;;;;;1.10;0.40;;;25.10;75.10;;;;;;5055373;28;20097;-80
2022/08/05 12:39:22;;;;;;;1.67;0.75;;;25.30;74.20;;;;;;5040400;28;20044;-81
2022/08/05 12:41:48;;;;;;;0.10;0.10;;;25.10;73.90;;;;;;5057353;28;20044;-86
2022/08/05 12:44:16;;;;;;;0.80;0.17;;;25.00;74.10;;;;;;5073075;28;20117;-85
2022/08/05 12:46:42;;;;;;;0.28;0.20;;;25.00;74.80;;;;;;5059970;28;20060;-85
2022/08/05 12:49:13;;;;;;;0.65;0.47;;;24.70;73.50;;;;;;5059277;28;20119;-86
2022/08/05 12:51:58;;;;;;;1.45;0.43;;;24.70;73.80;;;;;;5040509;28;20148;-85
2022/08/05 12:54:26;;;;;;;0.63;0.30;;;24.50;73.50;;;;;;5040406;28;20044;-86
2022/08/05 12:57:03;;;;;;;1.98;0.30;;;24.30;75.10;;;;;;5036764;28;20478;-80
2022/08/05 12:59:56;;;;;;;0.95;0.25;;;24.50;76.50;;;;;;5037897;28;20044;-80
2022/08/05 13:02:24;;;;;;;1.20;0.50;;;24.70;76.90;;;;;;5036936;28;20052;-80
2022/08/05 13:04:51;;;;;;;0.52;0.40;;;24.80;77.10;;;;;;5056484;28;20490;-80